Time;durP1;ratioP1;P1;durP2;ratioP2;P2;SDS_P1;SDS_P2;PMS_P1;PMS_P2;Temp;Humidity;BMP_temperature;BMP_pressure;BME280_temperature;BME280_humidity;BME280_pressure;Samples;Min_cycle;Max_cycle;Signal;HPM_P1;HPM_P2
2024/02/03 00:01:48;;;;;;;5.10;4.60;;;;;;;;;;5036662;28;20387;-77
2024/02/03 00:04:14;;;;;;;4.60;4.20;;;;;;;;;;5035758;28;20417;-77
2024/02/03 00:06:41;;;;;;;5.00;4.60;;;;;;;;;;5036426;28;20379;-78
2024/02/03 00:09:07;;;;;;;5.22;4.82;;;;;;;;;;5036270;28;20418;-78
2024/02/03 00:11:34;;;;;;;5.40;5.00;;;;;;;;;;5036529;28;20379;-78
2024/02/03 00:14:00;;;;;;;5.72;5.18;;;;;;;;;;5036511;28;20450;-78
2024/02/03 00:16:26;;;;;;;5.82;5.32;;;;;;;;;;5035874;28;20379;-78
2024/02/03 00:18:52;;;;;;;5.22;4.82;;;;;;;;;;5035780;28;20478;-78
2024/02/03 00:21:19;;;;;;;5.40;4.90;;;;;;;;;;5036705;28;20452;-78
2024/02/03 00:23:45;;;;;;;5.17;4.77;;;;;;;;;;5037650;28;20430;-78
2024/02/03 00:26:11;;;;;;;4.80;4.40;;;;;;;;;;5036921;28;20379;-77
2024/02/03 00:28:37;;;;;;;6.70;4.40;;;;;;;;;;5036651;28;20411;-78
2024/02/03 00:31:04;;;;;;;5.60;4.80;;;;;;;;;;5036469;28;20578;-78
2024/02/03 00:33:30;;;;;;;5.47;5.07;;;;;;;;;;5036028;28;20446;-78
2024/02/03 00:35:56;;;;;;;5.23;4.83;;;;;;;;;;5036327;28;20383;-77
2024/02/03 00:38:22;;;;;;;5.65;5.15;;;;;;;;;;5036367;28;20390;-78
2024/02/03 00:40:48;;;;;;;5.40;5.00;;;;;;;;;;5035742;28;20387;-78
2024/02/03 00:43:17;;;;;;;5.53;5.03;;;;;;;;;;5036381;28;20506;-78
2024/02/03 00:45:44;;;;;;;5.97;5.47;;;;;;;;;;5035993;28;20387;-78
2024/02/03 00:48:11;;;;;;;5.63;5.07;;;;;;;;;;5035406;28;20422;-78
2024/02/03 00:50:37;;;;;;;5.10;4.70;;;;;;;;;;5035116;28;20411;-79
2024/02/03 00:53:03;;;;;;;4.70;4.30;;;;;;;;;;5034505;28;20405;-78
2024/02/03 00:55:29;;;;;;;4.87;4.40;;;;;;;;;;5034808;28;20422;-78
2024/02/03 00:57:55;;;;;;;4.88;4.45;;;;;;;;;;5033887;28;20395;-78
2024/02/03 01:00:23;;;;;;;4.80;4.40;;;;;;;;;;5034741;28;20379;-77
2024/02/03 01:02:51;;;;;;;4.93;4.53;;;;;;;;;;5034733;28;20445;-77
2024/02/03 01:05:17;;;;;;;4.60;4.20;;;;;;;;;;5034723;28;20383;-77
2024/02/03 01:07:44;;;;;;;4.75;4.35;;;;;;;;;;5034416;28;20375;-78
2024/02/03 01:10:10;;;;;;;4.95;4.47;;;;;;;;;;5034709;28;20913;-78
2024/02/03 01:12:36;;;;;;;5.45;5.00;;;;;;;;;;5034386;28;20379;-77
2024/02/03 01:15:02;;;;;;;5.00;4.60;;;;;;;;;;5034341;28;20406;-77
2024/02/03 01:17:28;;;;;;;4.80;4.40;;;;;;;;;;5033886;28;20887;-77
2024/02/03 01:19:54;;;;;;;5.30;4.80;;;;;;;;;;5033775;28;20398;-78
2024/02/03 01:22:21;;;;;;;5.53;4.93;;;;;;;;;;5034359;28;20412;-78
2024/02/03 01:24:47;;;;;;;5.50;5.10;;;;;;;;;;5034071;28;20429;-78
2024/02/03 01:27:13;;;;;;;5.65;5.18;;;;;;;;;;5033884;28;20383;-78
2024/02/03 01:29:39;;;;;;;5.88;5.38;;;;;;;;;;5033711;28;20411;-78
2024/02/03 01:32:06;;;;;;;6.10;5.60;;;;;;;;;;5033909;28;20379;-78
2024/02/03 01:34:32;;;;;;;5.60;5.20;;;;;;;;;;5034053;28;20384;-78
2024/02/03 01:36:58;;;;;;;6.20;5.43;;;;;;;;;;5034287;28;20379;-78
2024/02/03 01:39:25;;;;;;;6.97;6.07;;;;;;;;;;5034088;28;20391;-78
2024/02/03 01:41:51;;;;;;;5.75;5.35;;;;;;;;;;5033798;28;20437;-78
2024/02/03 01:44:17;;;;;;;5.78;5.35;;;;;;;;;;5034050;28;20389;-77
2024/02/03 01:46:43;;;;;;;5.97;5.47;;;;;;;;;;5033524;28;20462;-78
2024/02/03 01:49:10;;;;;;;6.07;5.57;;;;;;;;;;5033677;28;20441;-77
2024/02/03 01:51:36;;;;;;;6.15;5.65;;;;;;;;;;5033990;28;20459;-77
2024/02/03 01:54:02;;;;;;;6.60;6.07;;;;;;;;;;5033657;28;20466;-78
2024/02/03 01:56:29;;;;;;;8.25;7.55;;;;;;;;;;5033361;28;20379;-77
2024/02/03 01:58:55;;;;;;;8.15;7.45;;;;;;;;;;5033390;28;20383;-78
2024/02/03 02:01:21;;;;;;;8.60;7.90;;;;;;;;;;5033240;28;20385;-77
2024/02/03 02:03:47;;;;;;;9.20;8.40;;;;;;;;;;5033156;28;20835;-77
2024/02/03 02:06:13;;;;;;;8.43;7.72;;;;;;;;;;5033162;28;20375;-78
2024/02/03 02:08:39;;;;;;;9.00;8.20;;;;;;;;;;5032747;28;20498;-77
2024/02/03 02:11:06;;;;;;;8.52;7.82;;;;;;;;;;5033871;28;20904;-78
2024/02/03 02:13:32;;;;;;;8.57;7.88;;;;;;;;;;5033783;28;20387;-77
2024/02/03 02:15:58;;;;;;;8.30;7.60;;;;;;;;;;5033357;28;20379;-78
2024/02/03 02:18:25;;;;;;;7.90;7.20;;;;;;;;;;5033833;28;20383;-78
2024/02/03 02:20:51;;;;;;;7.47;6.88;;;;;;;;;;5033431;28;20386;-78
2024/02/03 02:23:17;;;;;;;7.38;6.70;;;;;;;;;;5033025;28;20809;-78
2024/02/03 02:25:44;;;;;;;8.65;7.18;;;;;;;;;;5033365;28;20725;-77
2024/02/03 02:28:10;;;;;;;7.72;7.03;;;;;;;;;;5032733;28;20414;-78
2024/02/03 02:30:36;;;;;;;7.63;7.00;;;;;;;;;;5033345;28;20379;-78
2024/02/03 02:33:02;;;;;;;7.60;7.00;;;;;;;;;;5036801;28;20375;-79
2024/02/03 02:35:28;;;;;;;7.82;7.22;;;;;;;;;;5037053;28;20864;-78
2024/02/03 02:37:54;;;;;;;8.32;7.63;;;;;;;;;;5036548;28;20429;-78
2024/02/03 02:40:20;;;;;;;8.35;7.65;;;;;;;;;;5036879;28;20413;-77
2024/02/03 02:42:46;;;;;;;8.23;7.53;;;;;;;;;;5036324;28;20453;-78
2024/02/03 02:45:12;;;;;;;8.70;8.00;;;;;;;;;;5037079;28;20395;-77
2024/02/03 02:47:38;;;;;;;8.43;7.72;;;;;;;;;;5036754;28;20390;-78
2024/02/03 02:50:04;;;;;;;7.78;7.18;;;;;;;;;;5037209;28;20390;-77
2024/02/03 02:52:32;;;;;;;7.97;7.38;;;;;;;;;;5037195;28;20383;-77
2024/02/03 02:54:58;;;;;;;7.53;6.93;;;;;;;;;;5037697;28;20443;-78
2024/02/03 02:57:24;;;;;;;8.50;7.70;;;;;;;;;;5036927;28;20414;-77
2024/02/03 02:59:50;;;;;;;8.27;7.50;;;;;;;;;;5036841;28;20391;-77
2024/02/03 03:02:16;;;;;;;7.60;7.00;;;;;;;;;;5037212;28;20429;-78
2024/02/03 03:04:42;;;;;;;8.05;7.35;;;;;;;;;;5037311;28;20415;-77
2024/02/03 03:07:08;;;;;;;7.05;6.53;;;;;;;;;;5036592;28;20379;-77
2024/02/03 03:09:34;;;;;;;6.85;6.28;;;;;;;;;;5036550;28;21056;-78
2024/02/03 03:12:00;;;;;;;7.07;6.57;;;;;;;;;;5036835;28;20428;-78
2024/02/03 03:14:26;;;;;;;7.70;7.10;;;;;;;;;;5036693;28;20375;-77
2024/02/03 03:16:53;;;;;;;7.95;7.25;;;;;;;;;;5036515;28;20868;-77
2024/02/03 03:19:19;;;;;;;8.18;7.47;;;;;;;;;;5036544;28;20402;-78
2024/02/03 03:21:45;;;;;;;8.63;7.87;;;;;;;;;;5036181;28;20861;-77
2024/02/03 03:24:11;;;;;;;9.50;8.60;;;;;;;;;;5035217;28;20392;-77
2024/02/03 03:26:43;;;;;;;8.38;7.68;;;;;;;;;;5036420;28;20410;-77
2024/02/03 03:29:11;;;;;;;8.65;7.80;;;;;;;;;;5036497;28;20434;-78
2024/02/03 03:31:37;;;;;;;8.68;7.97;;;;;;;;;;5036599;28;20889;-78
2024/02/03 03:34:03;;;;;;;8.45;7.75;;;;;;;;;;5036389;28;20383;-78
2024/02/03 03:36:29;;;;;;;8.57;7.78;;;;;;;;;;5036411;28;20715;-78
2024/02/03 03:38:55;;;;;;;9.07;8.27;;;;;;;;;;5036273;28;20449;-78
2024/02/03 03:41:21;;;;;;;9.10;8.30;;;;;;;;;;5036674;28;20391;-77
2024/02/03 03:43:48;;;;;;;10.50;9.63;;;;;;;;;;5035572;28;20447;-78
2024/02/03 03:46:14;;;;;;;10.60;9.57;;;;;;;;;;5036170;28;20472;-78
2024/02/03 03:48:40;;;;;;;10.63;9.65;;;;;;;;;;5035837;28;20407;-78
2024/02/03 03:51:06;;;;;;;9.88;9.07;;;;;;;;;;5036067;28;20389;-77
2024/02/03 03:53:33;;;;;;;9.80;9.00;;;;;;;;;;5036291;28;20387;-78
2024/02/03 03:55:59;;;;;;;9.95;9.05;;;;;;;;;;5035500;28;20381;-77
2024/02/03 03:58:25;;;;;;;9.97;9.17;;;;;;;;;;5035629;28;20442;-78
2024/02/03 04:00:51;;;;;;;9.60;8.80;;;;;;;;;;5035999;28;20395;-78
2024/02/03 04:03:17;;;;;;;10.25;9.35;;;;;;;;;;5035632;28;20407;-78
2024/02/03 04:05:44;;;;;;;10.82;9.88;;;;;;;;;;5035680;28;20386;-78
2024/02/03 04:08:10;;;;;;;10.50;9.60;;;;;;;;;;5035837;28;20888;-78
2024/02/03 04:10:36;;;;;;;10.48;9.57;;;;;;;;;;5035692;28;20386;-78
2024/02/03 04:13:02;;;;;;;9.95;9.05;;;;;;;;;;5035843;28;20391;-78
2024/02/03 04:15:29;;;;;;;10.27;9.38;;;;;;;;;;5035537;28;20474;-78
2024/02/03 04:17:57;;;;;;;9.93;9.02;;;;;;;;;;5035583;28;20857;-78
2024/02/03 04:20:23;;;;;;;10.05;9.15;;;;;;;;;;5035390;28;20445;-78
2024/02/03 04:22:49;;;;;;;10.68;9.57;;;;;;;;;;5035576;28;20387;-78
2024/02/03 04:25:15;;;;;;;13.27;12.07;;;;;;;;;;5035424;28;20445;-78
2024/02/03 04:27:41;;;;;;;15.90;14.07;;;;;;;;;;5035514;28;20392;-78
2024/02/03 04:30:07;;;;;;;11.95;10.85;;;;;;;;;;5035270;28;20394;-78
2024/02/03 04:32:33;;;;;;;10.95;10.02;;;;;;;;;;5034845;28;20853;-77
2024/02/03 04:34:59;;;;;;;9.77;8.93;;;;;;;;;;5035122;28;20386;-78
2024/02/03 04:37:25;;;;;;;10.00;9.10;;;;;;;;;;5034954;28;20480;-77
2024/02/03 04:39:51;;;;;;;9.57;8.77;;;;;;;;;;5034740;28;20399;-77
2024/02/03 04:42:17;;;;;;;9.60;8.80;;;;;;;;;;5035121;28;20387;-78
2024/02/03 04:44:43;;;;;;;9.90;9.10;;;;;;;;;;5035420;28;20874;-77
2024/02/03 04:47:09;;;;;;;9.15;8.35;;;;;;;;;;5035229;28;20391;-78
2024/02/03 04:49:35;;;;;;;9.82;8.93;;;;;;;;;;5035465;28;20419;-78
2024/02/03 04:52:01;;;;;;;9.23;8.40;;;;;;;;;;5035759;28;20467;-78
2024/02/03 04:54:29;;;;;;;8.93;8.23;;;;;;;;;;5034305;28;20433;-77
2024/02/03 04:56:55;;;;;;;8.45;7.75;;;;;;;;;;5034739;28;21051;-78
2024/02/03 04:59:21;;;;;;;10.00;9.10;;;;;;;;;;5034886;28;20907;-78
2024/02/03 05:01:47;;;;;;;8.68;7.78;;;;;;;;;;5035240;28;20387;-77
2024/02/03 05:04:13;;;;;;;8.48;7.78;;;;;;;;;;5034830;28;20411;-78
2024/02/03 05:06:39;;;;;;;7.75;7.05;;;;;;;;;;5034583;28;20394;-78
2024/02/03 05:09:07;;;;;;;8.68;7.88;;;;;;;;;;5034406;28;20438;-78
2024/02/03 05:11:33;;;;;;;8.90;8.10;;;;;;;;;;5035381;28;20525;-78
2024/02/03 05:13:59;;;;;;;9.90;9.00;;;;;;;;;;5034492;28;20419;-78
2024/02/03 05:16:26;;;;;;;8.15;7.45;;;;;;;;;;5034558;28;20467;-78
2024/02/03 05:18:52;;;;;;;8.43;7.72;;;;;;;;;;5034006;28;20388;-77
2024/02/03 05:21:18;;;;;;;8.48;7.68;;;;;;;;;;5034139;28;20394;-78
2024/02/03 05:23:44;;;;;;;7.82;7.22;;;;;;;;;;5034638;28;20478;-78
2024/02/03 05:26:10;;;;;;;8.32;7.63;;;;;;;;;;5034481;28;20857;-78
2024/02/03 05:28:36;;;;;;;8.52;7.82;;;;;;;;;;5034110;28;20505;-77
2024/02/03 05:31:02;;;;;;;8.57;7.87;;;;;;;;;;5034384;28;20403;-78
2024/02/03 05:33:30;;;;;;;7.90;7.30;;;;;;;;;;5034240;28;20402;-78
2024/02/03 05:35:56;;;;;;;7.78;7.18;;;;;;;;;;5033570;28;20382;-77
2024/02/03 05:38:22;;;;;;;7.27;6.67;;;;;;;;;;5034111;28;20383;-78
2024/02/03 05:40:48;;;;;;;7.20;6.60;;;;;;;;;;5033701;28;20462;-78
2024/02/03 05:43:14;;;;;;;7.35;6.65;;;;;;;;;;5033605;28;20395;-78
2024/02/03 05:45:40;;;;;;;7.47;6.88;;;;;;;;;;5033832;28;20398;-77
2024/02/03 05:48:07;;;;;;;7.82;7.00;;;;;;;;;;5033612;28;20411;-77
2024/02/03 05:50:33;;;;;;;7.28;6.68;;;;;;;;;;5033970;28;20516;-78
2024/02/03 05:52:59;;;;;;;8.05;7.35;;;;;;;;;;5033671;28;20434;-78
2024/02/03 05:55:25;;;;;;;8.57;7.88;;;;;;;;;;5033833;28;20374;-77
2024/02/03 05:57:55;;;;;;;7.75;7.07;;;;;;;;;;5033534;28;20774;-78
2024/02/03 06:00:22;;;;;;;7.95;7.25;;;;;;;;;;5034189;28;20378;-77
2024/02/03 06:02:47;;;;;;;8.07;7.35;;;;;;;;;;5033175;28;20379;-78
2024/02/03 06:05:15;;;;;;;8.17;7.37;;;;;;;;;;5033864;28;20464;-78
2024/02/03 06:07:42;;;;;;;8.20;7.50;;;;;;;;;;5033080;28;20433;-77
2024/02/03 06:10:08;;;;;;;7.60;6.80;;;;;;;;;;5033560;28;20384;-78
2024/02/03 06:12:34;;;;;;;7.15;6.55;;;;;;;;;;5033389;28;20375;-78
2024/02/03 06:15:00;;;;;;;7.93;7.22;;;;;;;;;;5033353;28;20406;-78
2024/02/03 06:17:26;;;;;;;7.45;6.85;;;;;;;;;;5033397;28;20465;-77
2024/02/03 06:19:53;;;;;;;7.45;6.75;;;;;;;;;;5034089;28;20394;-78
2024/02/03 06:22:19;;;;;;;6.88;6.28;;;;;;;;;;5033843;28;20398;-78
2024/02/03 06:24:45;;;;;;;6.88;6.30;;;;;;;;;;5033874;28;20729;-78
2024/02/03 06:27:11;;;;;;;7.57;6.93;;;;;;;;;;5033450;28;20395;-78
2024/02/03 06:29:37;;;;;;;7.35;6.75;;;;;;;;;;5033245;28;20413;-78
2024/02/03 06:32:04;;;;;;;7.40;6.68;;;;;;;;;;5033577;28;20478;-78
2024/02/03 06:34:30;;;;;;;8.00;7.30;;;;;;;;;;5033231;28;20386;-78
2024/02/03 06:36:56;;;;;;;8.40;7.70;;;;;;;;;;5033329;28;20383;-78
2024/02/03 06:39:22;;;;;;;7.83;7.13;;;;;;;;;;5033856;28;20459;-78
2024/02/03 06:41:48;;;;;;;7.63;7.03;;;;;;;;;;5033645;28;20398;-78
2024/02/03 06:44:14;;;;;;;9.03;8.33;;;;;;;;;;5033659;28;20375;-78
2024/02/03 06:46:40;;;;;;;8.25;7.55;;;;;;;;;;5033462;28;20450;-78
2024/02/03 06:49:06;;;;;;;8.20;7.40;;;;;;;;;;5033367;28;20422;-78
2024/02/03 06:51:32;;;;;;;8.45;7.75;;;;;;;;;;5034166;28;20379;-78
2024/02/03 06:53:58;;;;;;;8.27;7.57;;;;;;;;;;5033529;28;20458;-78
2024/02/03 06:56:24;;;;;;;7.73;7.10;;;;;;;;;;5033659;28;20753;-78
2024/02/03 06:58:50;;;;;;;8.45;7.65;;;;;;;;;;5033454;28;20379;-77
2024/02/03 07:01:16;;;;;;;8.20;7.40;;;;;;;;;;5033229;28;20457;-77
2024/02/03 07:03:42;;;;;;;8.13;7.40;;;;;;;;;;5033265;28;20461;-78
2024/02/03 07:06:08;;;;;;;8.68;7.95;;;;;;;;;;5033556;28;20391;-78
2024/02/03 07:08:34;;;;;;;7.97;7.27;;;;;;;;;;5033099;28;20446;-78
2024/02/03 07:11:00;;;;;;;8.15;7.45;;;;;;;;;;5033229;28;20379;-77
2024/02/03 07:13:27;;;;;;;7.97;7.28;;;;;;;;;;5033584;28;20730;-77
2024/02/03 07:15:54;;;;;;;9.20;8.40;;;;;;;;;;5033011;28;20380;-78
2024/02/03 07:18:20;;;;;;;8.90;8.10;;;;;;;;;;5034483;28;20473;-78
2024/02/03 07:20:46;;;;;;;8.68;7.88;;;;;;;;;;5037589;28;20371;-78
2024/02/03 07:23:12;;;;;;;9.00;8.20;;;;;;;;;;5037157;28;20414;-77
2024/02/03 07:25:37;;;;;;;8.25;7.55;;;;;;;;;;5037118;28;20387;-78
2024/02/03 07:28:04;;;;;;;8.93;8.23;;;;;;;;;;5036921;28;20422;-78
2024/02/03 07:30:30;;;;;;;8.57;7.88;;;;;;;;;;5036996;28;20376;-78
2024/02/03 07:32:56;;;;;;;8.23;7.53;;;;;;;;;;5036764;28;20732;-78
2024/02/03 07:35:22;;;;;;;9.02;8.23;;;;;;;;;;5036880;28;20387;-78
2024/02/03 07:37:48;;;;;;;8.55;7.80;;;;;;;;;;5036727;28;20379;-77
2024/02/03 07:40:14;;;;;;;8.80;8.07;;;;;;;;;;5037248;28;20438;-77
2024/02/03 07:42:40;;;;;;;8.38;7.63;;;;;;;;;;5037159;28;20382;-77
2024/02/03 07:45:07;;;;;;;9.55;8.65;;;;;;;;;;5036546;28;20379;-78
2024/02/03 07:47:33;;;;;;;10.15;9.25;;;;;;;;;;5036564;28;20410;-78
2024/02/03 07:49:59;;;;;;;9.85;8.95;;;;;;;;;;5036432;28;20402;-78
2024/02/03 07:52:25;;;;;;;10.88;9.98;;;;;;;;;;5036241;28;20379;-78
2024/02/03 07:54:51;;;;;;;11.30;10.30;;;;;;;;;;5036407;28;20383;-78
2024/02/03 07:57:17;;;;;;;11.40;10.30;;;;;;;;;;5036224;28;20386;-78
2024/02/03 07:59:43;;;;;;;12.43;11.27;;;;;;;;;;5036119;28;20853;-78
2024/02/03 08:02:09;;;;;;;11.18;10.07;;;;;;;;;;5036514;28;20430;-78
2024/02/03 08:04:35;;;;;;;9.65;8.80;;;;;;;;;;5036631;28;20976;-78
2024/02/03 08:07:01;;;;;;;15.82;14.05;;;;;;;;;;5036513;28;20410;-78
2024/02/03 08:09:27;;;;;;;11.10;10.10;;;;;;;;;;5036569;28;20847;-77
2024/02/03 08:11:53;;;;;;;10.63;9.70;;;;;;;;;;5036945;28;20398;-78
2024/02/03 08:14:20;;;;;;;12.23;11.18;;;;;;;;;;5036949;28;20733;-78
2024/02/03 08:16:46;;;;;;;18.60;15.43;;;;;;;;;;5036439;28;20434;-78
2024/02/03 08:19:12;;;;;;;10.85;9.90;;;;;;;;;;5036557;28;20457;-78
2024/02/03 08:21:38;;;;;;;16.42;14.23;;;;;;;;;;5036039;28;20387;-78
2024/02/03 08:24:04;;;;;;;13.80;12.40;;;;;;;;;;5035784;28;20441;-78
2024/02/03 08:26:30;;;;;;;49.67;29.60;;;;;;;;;;5036562;28;20449;-79
2024/02/03 08:28:56;;;;;;;14.48;13.07;;;;;;;;;;5035872;28;20407;-79
2024/02/03 08:31:22;;;;;;;16.27;14.57;;;;;;;;;;5036638;28;20872;-78
2024/02/03 08:33:48;;;;;;;20.23;15.98;;;;;;;;;;5036162;28;20375;-78
2024/02/03 08:36:14;;;;;;;15.10;13.60;;;;;;;;;;5036656;28;20374;-78
2024/02/03 08:38:40;;;;;;;14.77;13.27;;;;;;;;;;5038310;28;20919;-78
2024/02/03 08:41:09;;;;;;;13.75;12.55;;;;;;;;;;5036820;28;20379;-78
2024/02/03 08:43:35;;;;;;;14.13;12.73;;;;;;;;;;5037618;28;20383;-78
2024/02/03 08:46:02;;;;;;;14.98;13.50;;;;;;;;;;5035951;28;20379;-78
2024/02/03 08:48:28;;;;;;;14.30;12.90;;;;;;;;;;5035820;28;20889;-78
2024/02/03 08:50:54;;;;;;;14.25;12.85;;;;;;;;;;5035457;28;20383;-79
2024/02/03 08:53:20;;;;;;;13.63;12.32;;;;;;;;;;5035976;28;20375;-78
2024/02/03 08:55:47;;;;;;;14.38;12.98;;;;;;;;;;5035337;28;20375;-78
2024/02/03 08:58:13;;;;;;;13.68;12.30;;;;;;;;;;5035557;28;20877;-77
2024/02/03 09:00:39;;;;;;;14.57;13.18;;;;;;;;;;5035680;28;20694;-78
2024/02/03 09:03:05;;;;;;;14.05;12.73;;;;;;;;;;5034544;28;20476;-77
2024/02/03 09:05:31;;;;;;;13.45;12.25;;;;;;;;;;5035048;28;20428;-78
2024/02/03 09:07:57;;;;;;;13.68;12.38;;;;;;;;;;5034588;28;20753;-79
2024/02/03 09:10:24;;;;;;;13.20;11.87;;;;;;;;;;5034645;28;20928;-78
2024/02/03 09:12:50;;;;;;;12.02;10.93;;;;;;;;;;5034367;28;20402;-79
2024/02/03 09:15:16;;;;;;;12.15;11.00;;;;;;;;;;5034679;28;20383;-78
2024/02/03 09:17:42;;;;;;;12.30;11.13;;;;;;;;;;5034324;28;20393;-78
2024/02/03 09:20:09;;;;;;;11.85;10.85;;;;;;;;;;5034526;28;20462;-78
2024/02/03 09:22:35;;;;;;;11.98;10.80;;;;;;;;;;5034383;28;20866;-78
2024/02/03 09:25:01;;;;;;;11.52;10.48;;;;;;;;;;5034346;28;20382;-78
2024/02/03 09:27:27;;;;;;;11.02;10.10;;;;;;;;;;5033903;28;20389;-78
2024/02/03 09:29:53;;;;;;;11.00;9.90;;;;;;;;;;5033637;28;20892;-78
2024/02/03 09:32:19;;;;;;;10.75;9.77;;;;;;;;;;5033827;28;20390;-78
2024/02/03 09:34:48;;;;;;;10.57;9.57;;;;;;;;;;5033508;28;20416;-77
2024/02/03 09:37:14;;;;;;;10.33;9.43;;;;;;;;;;5015438;28;20391;-78
2024/02/03 09:39:44;;;;;;;10.00;9.10;;;;;;;;;;5033306;28;20391;-77
2024/02/03 09:42:10;;;;;;;8.82;8.10;;;;;;;;;;5032631;28;20382;-77
2024/02/03 09:44:36;;;;;;;9.50;8.70;;;;;;;;;;5032806;28;20375;-77
2024/02/03 09:47:03;;;;;;;8.88;8.07;;;;;;;;;;5032776;28;20411;-78
2024/02/03 09:49:29;;;;;;;8.85;8.05;;;;;;;;;;5032979;28;20402;-78
2024/02/03 09:51:55;;;;;;;8.43;7.72;;;;;;;;;;5033576;28;20394;-77
2024/02/03 09:54:21;;;;;;;9.07;8.18;;;;;;;;;;5033251;28;20729;-77
2024/02/03 09:56:47;;;;;;;9.57;8.77;;;;;;;;;;5033092;28;20478;-77
2024/02/03 09:59:14;;;;;;;8.70;7.93;;;;;;;;;;5033425;28;20892;-77
2024/02/03 10:01:40;;;;;;;9.23;8.35;;;;;;;;;;5033127;28;20419;-77
2024/02/03 10:04:07;;;;;;;9.10;8.20;;;;;;;;;;5032977;28;20461;-77
2024/02/03 10:06:33;;;;;;;9.90;8.07;;;;;;;;;;5033345;28;20386;-77
2024/02/03 10:08:59;;;;;;;7.80;7.15;;;;;;;;;;5032774;28;20414;-78
2024/02/03 10:11:25;;;;;;;8.47;7.67;;;;;;;;;;5034128;28;20386;-79
2024/02/03 10:14:03;;;;;;;8.57;7.78;;;;;;;;;;5034367;28;20467;-78
2024/02/03 10:16:29;;;;;;;7.70;7.00;;;;;;;;;;5034610;28;20466;-79
2024/02/03 10:18:55;;;;;;;7.70;7.00;;;;;;;;;;5034165;28;20418;-78
2024/02/03 10:21:23;;;;;;;7.10;6.50;;;;;;;;;;5034363;28;20395;-78
2024/02/03 10:23:53;;;;;;;7.72;7.13;;;;;;;;;;5033426;28;20398;-79
2024/02/03 10:26:19;;;;;;;7.18;6.57;;;;;;;;;;5032667;28;20387;-78
2024/02/03 10:28:44;;;;;;;7.53;6.82;;;;;;;;;;5034268;28;20411;-79
2024/02/03 10:31:11;;;;;;;7.00;6.40;;;;;;;;;;5033535;28;20883;-78
2024/02/03 10:33:38;;;;;;;6.72;6.18;;;;;;;;;;5032832;28;20383;-78
2024/02/03 10:36:04;;;;;;;6.13;5.63;;;;;;;;;;5032474;28;20375;-78
2024/02/03 10:38:30;;;;;;;6.57;6.03;;;;;;;;;;5031980;28;20391;-78
2024/02/03 10:40:56;;;;;;;6.57;5.97;;;;;;;;;;5035388;28;20849;-80
2024/02/03 10:43:25;;;;;;;6.38;5.82;;;;;;;;;;5035694;28;20714;-80
2024/02/03 10:45:57;;;;;;;6.50;5.95;;;;;;;;;;5036030;28;20386;-81
2024/02/03 10:48:25;;;;;;;5.90;5.38;;;;;;;;;;5035639;28;20407;-80
2024/02/03 10:50:54;;;;;;;6.07;5.57;;;;;;;;;;5035684;28;20785;-80
2024/02/03 10:53:24;;;;;;;6.28;5.78;;;;;;;;;;5037441;28;20385;-81
2024/02/03 10:55:55;;;;;;;5.78;5.28;;;;;;;;;;5040141;28;20391;-81
2024/02/03 10:58:24;;;;;;;5.50;5.00;;;;;;;;;;5039510;28;20406;-80
2024/02/03 11:00:56;;;;;;;5.63;5.13;;;;;;;;;;5039583;28;20433;-81
2024/02/03 11:03:22;;;;;;;5.45;4.88;;;;;;;;;;5039369;28;20413;-80
2024/02/03 11:06:04;;;;;;;5.10;4.60;;;;;;;;;;5039256;28;20491;-82
2024/02/03 11:08:32;;;;;;;4.60;4.20;;;;;;;;;;5039918;28;20466;-81
2024/02/03 11:10:58;;;;;;;5.05;4.57;;;;;;;;;;5039857;28;20401;-80
2024/02/03 11:13:27;;;;;;;5.20;4.70;;;;;;;;;;5040166;28;20403;-81
2024/02/03 11:15:59;;;;;;;4.72;4.28;;;;;;;;;;5039782;28;20474;-81
2024/02/03 11:18:26;;;;;;;5.17;4.20;;;;;;;;;;5038962;28;20391;-81
2024/02/03 11:21:07;;;;;;;4.50;4.10;;;;;;;;;;5039724;28;20379;-81
2024/02/03 11:23:34;;;;;;;4.60;4.20;;;;;;;;;;5038977;28;20877;-80
2024/02/03 11:26:00;;;;;;;4.03;3.63;;;;;;;;;;5039291;28;20405;-82
2024/02/03 11:28:29;;;;;;;3.70;3.40;;;;;;;;;;5038849;28;21051;-82
2024/02/03 11:31:02;;;;;;;4.15;3.75;;;;;;;;;;5038775;28;20390;-82
2024/02/03 11:33:31;;;;;;;4.28;3.88;;;;;;;;;;5038509;28;20383;-81
2024/02/03 11:35:58;;;;;;;5.07;3.83;;;;;;;;;;5038843;28;20379;-82
2024/02/03 11:38:24;;;;;;;4.03;3.63;;;;;;;;;;5039117;28;20382;-81
2024/02/03 11:40:55;;;;;;;3.63;3.33;;;;;;;;;;5038670;28;20871;-81
2024/02/03 11:43:21;;;;;;;4.07;3.25;;;;;;;;;;5039175;28;20383;-80
2024/02/03 11:45:49;;;;;;;4.30;3.95;;;;;;;;;;5038595;28;20752;-80
2024/02/03 11:48:16;;;;;;;3.50;3.20;;;;;;;;;;5037948;28;20422;-80
2024/02/03 11:50:42;;;;;;;3.63;3.33;;;;;;;;;;5038783;28;20430;-81
2024/02/03 11:53:08;;;;;;;3.50;3.20;;;;;;;;;;5038177;28;20378;-81
2024/02/03 11:55:35;;;;;;;3.50;3.20;;;;;;;;;;5039448;28;20410;-81
2024/02/03 11:58:01;;;;;;;3.70;3.40;;;;;;;;;;5038749;28;20384;-81
2024/02/03 12:00:27;;;;;;;4.22;3.70;;;;;;;;;;5038451;28;20517;-80
2024/02/03 12:02:53;;;;;;;3.90;3.60;;;;;;;;;;5038469;28;20426;-81
2024/02/03 12:05:19;;;;;;;5.03;4.50;;;;;;;;;;5037675;28;20387;-82
2024/02/03 12:07:45;;;;;;;4.13;3.33;;;;;;;;;;5037981;28;20784;-82
2024/02/03 12:10:15;;;;;;;3.65;2.80;;;;;;;;;;5037800;28;20434;-81
2024/02/03 12:12:41;;;;;;;3.70;3.40;;;;;;;;;;5038319;28;20391;-81
2024/02/03 12:15:09;;;;;;;3.60;3.30;;;;;;;;;;5038174;28;20470;-82
2024/02/03 12:17:35;;;;;;;3.30;3.00;;;;;;;;;;5037901;28;20387;-81
2024/02/03 12:20:01;;;;;;;3.40;3.10;;;;;;;;;;5038392;28;20379;-82
2024/02/03 12:22:27;;;;;;;3.25;3.00;;;;;;;;;;5038130;28;20746;-81
2024/02/03 12:24:53;;;;;;;3.10;2.80;;;;;;;;;;5037354;28;20521;-82
2024/02/03 12:27:22;;;;;;;3.20;2.90;;;;;;;;;;5037674;28;20379;-80
2024/02/03 12:29:49;;;;;;;2.88;2.67;;;;;;;;;;5038406;28;20415;-82
2024/02/03 12:32:15;;;;;;;3.35;3.05;;;;;;;;;;5038077;28;20729;-82
2024/02/03 12:34:41;;;;;;;3.28;3.05;;;;;;;;;;5037912;28;20379;-81
2024/02/03 12:37:07;;;;;;;3.70;2.92;;;;;;;;;;5037849;28;20918;-82
2024/02/03 12:39:33;;;;;;;3.13;2.83;;;;;;;;;;5036737;28;20414;-83
2024/02/03 12:41:59;;;;;;;2.70;2.50;;;;;;;;;;5038157;28;20490;-82
2024/02/03 12:44:25;;;;;;;2.60;2.40;;;;;;;;;;5037552;28;20414;-81
2024/02/03 12:46:51;;;;;;;2.50;2.13;;;;;;;;;;5037384;28;20414;-82
2024/02/03 12:49:17;;;;;;;2.45;2.25;;;;;;;;;;5038448;28;20411;-82
2024/02/03 12:51:43;;;;;;;2.63;2.40;;;;;;;;;;5038007;28;20866;-82
2024/02/03 12:54:09;;;;;;;3.15;2.85;;;;;;;;;;5037851;28;20489;-82
2024/02/03 12:56:35;;;;;;;2.70;2.50;;;;;;;;;;5037689;28;20382;-81
2024/02/03 12:59:01;;;;;;;2.38;2.17;;;;;;;;;;5020307;28;20375;-81
2024/02/03 13:01:28;;;;;;;2.80;2.13;;;;;;;;;;5037683;28;20398;-80
2024/02/03 13:03:54;;;;;;;2.20;2.00;;;;;;;;;;5037203;28;20409;-82
2024/02/03 13:06:20;;;;;;;2.70;2.10;;;;;;;;;;5036933;28;20470;-81
2024/02/03 13:08:46;;;;;;;2.07;1.87;;;;;;;;;;5037165;28;20457;-80
2024/02/03 13:11:12;;;;;;;2.38;2.17;;;;;;;;;;5037659;28;20398;-81
2024/02/03 13:13:38;;;;;;;2.25;1.95;;;;;;;;;;5037545;28;20841;-80
2024/02/03 13:16:04;;;;;;;2.43;2.23;;;;;;;;;;5035582;28;20380;-82
2024/02/03 13:18:32;;;;;;;3.30;2.30;;;;;;;;;;5037181;28;20804;-82
2024/02/03 13:20:58;;;;;;;2.40;2.20;;;;;;;;;;5036025;28;20433;-82
2024/02/03 13:23:24;;;;;;;3.75;2.28;;;;;;;;;;5036180;28;20474;-82
2024/02/03 13:25:50;;;;;;;2.13;1.90;;;;;;;;;;5036621;28;20426;-82
2024/02/03 13:28:16;;;;;;;2.20;2.00;;;;;;;;;;5037313;28;20407;-81
2024/02/03 13:30:42;;;;;;;2.05;1.95;;;;;;;;;;5036599;28;20756;-82
2024/02/03 13:33:08;;;;;;;2.10;1.80;;;;;;;;;;5037215;28;20379;-82
2024/02/03 13:35:35;;;;;;;2.30;2.00;;;;;;;;;;5037139;28;20394;-81
2024/02/03 13:38:03;;;;;;;2.47;2.28;;;;;;;;;;5036850;28;20466;-81
2024/02/03 13:40:29;;;;;;;2.00;1.80;;;;;;;;;;5036179;28;20390;-82
2024/02/03 13:42:55;;;;;;;1.77;1.60;;;;;;;;;;5037283;28;20420;-81
2024/02/03 13:45:21;;;;;;;1.40;1.30;;;;;;;;;;5036035;28;20395;-81
2024/02/03 13:47:49;;;;;;;1.40;1.30;;;;;;;;;;5036659;28;20873;-81
2024/02/03 13:50:16;;;;;;;1.33;1.20;;;;;;;;;;5037006;28;20403;-81
2024/02/03 13:52:42;;;;;;;1.40;1.30;;;;;;;;;;5036879;28;20390;-81
2024/02/03 13:55:08;;;;;;;1.25;1.13;;;;;;;;;;5019052;28;20804;-80
2024/02/03 13:57:34;;;;;;;1.43;1.10;;;;;;;;;;5037073;28;20833;-81
2024/02/03 14:00:00;;;;;;;1.40;1.30;;;;;;;;;;5036469;28;20387;-80
2024/02/03 14:02:26;;;;;;;1.95;1.60;;;;;;;;;;5037689;28;20383;-80
2024/02/03 14:04:52;;;;;;;1.40;1.10;;;;;;;;;;5036794;28;20422;-81
2024/02/03 14:07:18;;;;;;;2.17;1.98;;;;;;;;;;5036196;28;20449;-81
2024/02/03 14:09:44;;;;;;;2.05;1.42;;;;;;;;;;5037291;28;20446;-81
2024/02/03 14:12:10;;;;;;;2.70;1.50;;;;;;;;;;5036662;28;20383;-81
2024/02/03 14:14:36;;;;;;;1.80;1.10;;;;;;;;;;5037384;28;20954;-80
2024/02/03 14:17:02;;;;;;;1.38;1.27;;;;;;;;;;5036813;28;20387;-80
2024/02/03 14:19:28;;;;;;;1.45;1.17;;;;;;;;;;5036133;28;20379;-81
2024/02/03 14:21:55;;;;;;;1.45;1.30;;;;;;;;;;5037323;28;20857;-81
2024/02/03 14:24:21;;;;;;;1.20;1.10;;;;;;;;;;5036886;28;20416;-82
2024/02/03 14:26:47;;;;;;;1.00;0.90;;;;;;;;;;5037080;28;20434;-83
2024/02/03 14:29:14;;;;;;;1.20;1.10;;;;;;;;;;5036134;28;20447;-81
2024/02/03 14:31:40;;;;;;;1.75;1.20;;;;;;;;;;5036172;28;20382;-81
2024/02/03 14:34:06;;;;;;;1.23;0.90;;;;;;;;;;5036667;28;20477;-80